AQQ10 IFIS: Internet Flight Information System
logo dgac
Miércoles 05 de Octubre del 2022

Metar

Buscar por aerodromo o helipuerto
Ingrese nombre de aeródromo, localidad o designador OACI:


METAR del 05-10-2022 a las 02:00 UTC
Para mayor información visite www.meteochile.cl
METAR SCPQ 050200Z AUTO 32004KT CAVOK 06/04 Q1018
Viento: dirección 320 grados, velocidad 4 nudos
Visibilidad: 10 km o más,
    sin nubes bajo los 5.000 pies o bajo del MSA (Mínimo de Seguridad del Aeródromo),
    sin cumulonimbus, y sin fenómenos de tiempo significativo en el aeródromo o alrededores
Temperatura: 6 °C
Rocío: 4 °C
Humedad_relativa: 87%
Presión: 1018 hPa
METAR del 05-10-2022 a las 02:00 UTC
Para mayor información visite www.meteochile.cl
METAR SCCF 050200Z 22008KT CAVOK 08/M23 Q1026
Viento: dirección 220 grados, velocidad 8 nudos
Visibilidad: 10 km o más,
    sin nubes bajo los 5.000 pies o bajo del MSA (Mínimo de Seguridad del Aeródromo),
    sin cumulonimbus, y sin fenómenos de tiempo significativo en el aeródromo o alrededores
Temperatura: 8 °C
Rocío: -23 °C
Presión: 1026 hPa
METAR del 05-10-2022 a las 02:00 UTC
Para mayor información visite www.meteochile.cl
METAR SCSE 050200Z 32003KT 9999 BKN030 12/10 Q1018
Viento: dirección 320 grados, velocidad 3 nudos
Visibilidad: 10 km o más
Nubes: Nublado a 3000 pies sobre el nivel del aeródromo
Temperatura: 12 °C
Rocío: 10 °C
Humedad_relativa: 88%
Presión: 1018 hPa
METAR del 05-10-2022 a las 02:00 UTC
Para mayor información visite www.meteochile.cl
METAR SCIE 050200Z 13002KT 9999 BKN030 11/11 Q1021
Viento: dirección 130 grados, velocidad 2 nudos
Visibilidad: 10 km o más
Nubes: Nublado a 3000 pies sobre el nivel del aeródromo
Temperatura: 11 °C
Rocío: 11 °C
Humedad_relativa: 100%
Presión: 1021 hPa
METAR del 05-10-2022 a las 02:00 UTC
Para mayor información visite www.meteochile.cl
METAR SCDA 050200Z 21009KT 9999 OVC032 15/07 Q1018
Viento: dirección 210 grados, velocidad 9 nudos
Visibilidad: 10 km o más
Nubes: Cubierto a 3200 pies sobre el nivel del aeródromo
Temperatura: 15 °C
Rocío: 7 °C
Humedad_relativa: 59%
Presión: 1018 hPa
METAR del 05-10-2022 a las 02:00 UTC
Para mayor información visite www.meteochile.cl
METAR SCFA 050200Z 22010KT 9999 OVC031 14/09 Q1018 NOSIG
Viento: dirección 220 grados, velocidad 10 nudos
Visibilidad: 10 km o más
Nubes: Cubierto a 3100 pies sobre el nivel del aeródromo
Temperatura: 14 °C
Rocío: 9 °C
Humedad_relativa: 72%
Presión: 1018 hPa
No se esperan cambios significativos en las próximas 2 horas
METAR del 05-10-2022 a las 02:00 UTC
Para mayor información visite www.meteochile.cl
METAR SCAR 050200Z 18008KT 9999 OVC027 15/10 Q1018
Viento: dirección 180 grados, velocidad 8 nudos
Visibilidad: 10 km o más
Nubes: Cubierto a 2700 pies sobre el nivel del aeródromo
Temperatura: 15 °C
Rocío: 10 °C
Humedad_relativa: 72%
Presión: 1018 hPa
METAR del 05-10-2022 a las 02:00 UTC
Para mayor información visite www.meteochile.cl
METAR SCIP 050200Z 35007KT 9999 BKN030 20/16 Q1020 NOSIG
Viento: dirección 350 grados, velocidad 7 nudos
Visibilidad: 10 km o más
Nubes: Nublado a 3000 pies sobre el nivel del aeródromo
Temperatura: 20 °C
Rocío: 16 °C
Humedad_relativa: 78%
Presión: 1020 hPa
No se esperan cambios significativos en las próximas 2 horas
METAR del 05-10-2022 a las 02:00 UTC
Para mayor información visite www.meteochile.cl
METAR SCEL 050200Z 14006KT 9999 FEW050 BKN140 11/05 Q1018 NOSIG
Viento: dirección 140 grados, velocidad 6 nudos
Visibilidad: 10 km o más
Nubes: Escasa nubosidad a 5000 pies sobre el nivel del aeródromo
Nubes: Nublado a 14000 pies sobre el nivel del aeródromo
Temperatura: 11 °C
Rocío: 5 °C
Humedad_relativa: 66%
Presión: 1018 hPa
No se esperan cambios significativos en las próximas 2 horas
METAR del 05-10-2022 a las 02:00 UTC
Para mayor información visite www.meteochile.cl
METAR SCTE 050200Z VRB02KT CAVOK 07/07 Q1019 NOSIG
Viento: dirección variable, velocidad 2 nudos
Visibilidad: 10 km o más,
    sin nubes bajo los 5.000 pies o bajo del MSA (Mínimo de Seguridad del Aeródromo),
    sin cumulonimbus, y sin fenómenos de tiempo significativo en el aeródromo o alrededores
Temperatura: 7 °C
Rocío: 7 °C
Humedad_relativa: 100%
Presión: 1019 hPa
No se esperan cambios significativos en las próximas 2 horas